sensor_id;sensor_type;location;lat;lon;timestamp;pressure;altitude;pressure_sealevel;temperature;humidity
5146;BME280;2591;48.144;15.152;2023-01-31T00:01:50;76938.69;;;-144.65;100.00
5146;BME280;2591;48.144;15.152;2023-01-31T00:04:18;76930.53;;;-144.65;100.00
5146;BME280;2591;48.144;15.152;2023-01-31T00:06:46;76928.50;;;-144.65;100.00
5146;BME280;2591;48.144;15.152;2023-01-31T00:09:17;76910.16;;;-144.65;100.00
5146;BME280;2591;48.144;15.152;2023-01-31T00:11:45;76922.38;;;-144.65;100.00
5146;BME280;2591;48.144;15.152;2023-01-31T00:14:17;76901.97;;;-144.65;100.00
5146;BME280;2591;48.144;15.152;2023-01-31T00:16:45;76912.19;;;-144.65;100.00
5146;BME280;2591;48.144;15.152;2023-01-31T00:19:15;76914.22;;;-144.65;100.00
5146;BME280;2591;48.144;15.152;2023-01-31T00:21:43;76910.16;;;-144.65;100.00
5146;BME280;2591;48.144;15.152;2023-01-31T00:24:11;76916.25;;;-144.65;100.00
5146;BME280;2591;48.144;15.152;2023-01-31T00:26:39;76901.97;;;-144.65;100.00
5146;BME280;2591;48.144;15.152;2023-01-31T00:29:07;76899.94;;;-144.65;100.00
5146;BME280;2591;48.144;15.152;2023-01-31T00:31:35;76910.16;;;-144.65;100.00
5146;BME280;2591;48.144;15.152;2023-01-31T00:34:04;76910.16;;;-144.65;100.00
5146;BME280;2591;48.144;15.152;2023-01-31T00:36:34;76908.09;;;-144.65;100.00
5146;BME280;2591;48.144;15.152;2023-01-31T00:39:04;76924.41;;;-144.65;100.00
5146;BME280;2591;48.144;15.152;2023-01-31T00:41:34;76922.38;;;-144.65;100.00
5146;BME280;2591;48.144;15.152;2023-01-31T00:44:05;76922.38;;;-144.65;100.00
5146;BME280;2591;48.144;15.152;2023-01-31T00:46:33;76914.22;;;-144.65;100.00
5146;BME280;2591;48.144;15.152;2023-01-31T00:49:02;76914.22;;;-144.65;100.00
5146;BME280;2591;48.144;15.152;2023-01-31T00:51:30;76932.56;;;-144.65;100.00
5146;BME280;2591;48.144;15.152;2023-01-31T00:53:59;76916.25;;;-144.65;100.00
5146;BME280;2591;48.144;15.152;2023-01-31T00:56:27;76901.97;;;-144.65;100.00
5146;BME280;2591;48.144;15.152;2023-01-31T00:58:55;76906.06;;;-144.65;100.00
5146;BME280;2591;48.144;15.152;2023-01-31T01:01:25;76906.06;;;-144.65;100.00
5146;BME280;2591;48.144;15.152;2023-01-31T01:03:54;76910.16;;;-144.65;100.00
5146;BME280;2591;48.144;15.152;2023-01-31T01:06:23;76912.19;;;-144.65;100.00
5146;BME280;2591;48.144;15.152;2023-01-31T01:08:52;76934.63;;;-144.65;100.00
5146;BME280;2591;48.144;15.152;2023-01-31T01:11:24;76936.66;;;-144.65;100.00
5146;BME280;2591;48.144;15.152;2023-01-31T01:13:52;76922.38;;;-144.65;100.00
5146;BME280;2591;48.144;15.152;2023-01-31T01:16:22;76926.47;;;-144.65;100.00
5146;BME280;2591;48.144;15.152;2023-01-31T01:18:51;76922.38;;;-144.65;100.00
5146;BME280;2591;48.144;15.152;2023-01-31T01:21:23;76926.47;;;-144.65;100.00
5146;BME280;2591;48.144;15.152;2023-01-31T01:23:52;76938.69;;;-144.65;100.00
5146;BME280;2591;48.144;15.152;2023-01-31T01:26:23;76938.69;;;-144.65;100.00
5146;BME280;2591;48.144;15.152;2023-01-31T01:28:53;76946.84;;;-144.65;100.00
5146;BME280;2591;48.144;15.152;2023-01-31T01:31:22;76942.78;;;-144.65;100.00
5146;BME280;2591;48.144;15.152;2023-01-31T01:33:57;76926.47;;;-144.65;100.00
5146;BME280;2591;48.144;15.152;2023-01-31T01:36:26;76930.53;;;-144.65;100.00
5146;BME280;2591;48.144;15.152;2023-01-31T01:38:55;76922.38;;;-144.65;100.00
5146;BME280;2591;48.144;15.152;2023-01-31T01:41:25;76910.16;;;-144.65;100.00
5146;BME280;2591;48.144;15.152;2023-01-31T01:43:54;76926.47;;;-144.65;100.00
5146;BME280;2591;48.144;15.152;2023-01-31T01:46:26;76936.66;;;-144.65;100.00
5146;BME280;2591;48.144;15.152;2023-01-31T01:48:59;76950.94;;;-144.65;100.00
5146;BME280;2591;48.144;15.152;2023-01-31T01:51:31;76938.69;;;-144.65;100.00
5146;BME280;2591;48.144;15.152;2023-01-31T01:54:03;76950.94;;;-144.65;100.00
5146;BME280;2591;48.144;15.152;2023-01-31T01:56:36;76946.84;;;-144.65;100.00
5146;BME280;2591;48.144;15.152;2023-01-31T01:59:08;76950.94;;;-144.65;100.00
5146;BME280;2591;48.144;15.152;2023-01-31T02:01:37;76963.16;;;-144.65;100.00
5146;BME280;2591;48.144;15.152;2023-01-31T02:04:09;76965.19;;;-144.65;100.00
5146;BME280;2591;48.144;15.152;2023-01-31T02:06:39;76959.09;;;-144.65;100.00
5146;BME280;2591;48.144;15.152;2023-01-31T02:09:11;76957.03;;;-144.65;100.00
5146;BME280;2591;48.144;15.152;2023-01-31T02:11:44;76969.28;;;-144.65;100.00
5146;BME280;2591;48.144;15.152;2023-01-31T02:14:12;76977.44;;;-144.65;100.00
5146;BME280;2591;48.144;15.152;2023-01-31T02:16:40;76975.41;;;-144.65;100.00
5146;BME280;2591;48.144;15.152;2023-01-31T02:19:18;76975.41;;;-144.65;100.00
5146;BME280;2591;48.144;15.152;2023-01-31T02:22:05;76963.16;;;-144.65;100.00
5146;BME280;2591;48.144;15.152;2023-01-31T02:28:35;76963.16;;;-144.65;100.00
5146;BME280;2591;48.144;15.152;2023-01-31T02:34:13;76959.09;;;-144.65;100.00
5146;BME280;2591;48.144;15.152;2023-01-31T02:36:54;76959.09;;;-144.65;100.00
5146;BME280;2591;48.144;15.152;2023-01-31T02:39:30;76950.94;;;-144.65;98.20
5146;BME280;2591;48.144;15.152;2023-01-31T02:42:08;76955.00;;;-144.65;97.62
5146;BME280;2591;48.144;15.152;2023-01-31T02:44:48;76963.16;;;-144.65;97.08
5146;BME280;2591;48.144;15.152;2023-01-31T02:47:49;76946.84;;;-144.65;96.62
5146;BME280;2591;48.144;15.152;2023-01-31T02:50:24;76934.63;;;-144.65;96.50
5146;BME280;2591;48.144;15.152;2023-01-31T02:52:57;76955.00;;;-144.65;96.82
5146;BME280;2591;48.144;15.152;2023-01-31T02:55:32;76938.69;;;-144.65;96.05
5146;BME280;2591;48.144;15.152;2023-01-31T02:58:21;76950.94;;;-144.65;95.47
5146;BME280;2591;48.144;15.152;2023-01-31T03:00:55;76950.94;;;-144.65;96.82
5146;BME280;2591;48.144;15.152;2023-01-31T03:03:27;76942.78;;;-144.65;96.66
5146;BME280;2591;48.144;15.152;2023-01-31T03:09:02;76950.94;;;-144.65;96.60
5146;BME280;2591;48.144;15.152;2023-01-31T03:11:35;76959.09;;;-144.65;97.02
5146;BME280;2591;48.144;15.152;2023-01-31T03:14:14;76959.09;;;-144.65;97.08
5146;BME280;2591;48.144;15.152;2023-01-31T03:16:51;76955.00;;;-144.65;97.46
5146;BME280;2591;48.144;15.152;2023-01-31T03:19:45;76973.38;;;-144.65;97.40
5146;BME280;2591;48.144;15.152;2023-01-31T03:22:19;76963.16;;;-144.65;97.21
5146;BME280;2591;48.144;15.152;2023-01-31T03:24:51;76967.25;;;-144.65;96.89
5146;BME280;2591;48.144;15.152;2023-01-31T03:27:19;76967.25;;;-144.65;97.00
5146;BME280;2591;48.144;15.152;2023-01-31T03:29:49;76963.16;;;-144.65;96.58
5146;BME280;2591;48.144;15.152;2023-01-31T03:32:19;76983.56;;;-144.65;96.91
5146;BME280;2591;48.144;15.152;2023-01-31T03:34:51;76989.69;;;-144.65;97.22
5146;BME280;2591;48.144;15.152;2023-01-31T03:37:25;76975.41;;;-144.65;97.40
5146;BME280;2591;48.144;15.152;2023-01-31T03:39:59;76993.75;;;-144.65;97.67
5146;BME280;2591;48.144;15.152;2023-01-31T03:42:38;76989.69;;;-144.65;97.59
5146;BME280;2591;48.144;15.152;2023-01-31T03:45:11;76999.88;;;-144.65;97.64
5146;BME280;2591;48.144;15.152;2023-01-31T03:47:43;76975.41;;;-144.65;96.88
5146;BME280;2591;48.144;15.152;2023-01-31T03:50:15;76963.16;;;-144.65;94.83
5146;BME280;2591;48.144;15.152;2023-01-31T03:52:50;76975.41;;;-144.65;94.50
5146;BME280;2591;48.144;15.152;2023-01-31T03:55:26;76975.41;;;-144.65;94.50
5146;BME280;2591;48.144;15.152;2023-01-31T03:57:59;76969.28;;;-144.65;94.42
5146;BME280;2591;48.144;15.152;2023-01-31T04:00:28;76977.44;;;-144.65;94.92
5146;BME280;2591;48.144;15.152;2023-01-31T04:03:06;76991.72;;;-144.65;95.06
5146;BME280;2591;48.144;15.152;2023-01-31T04:05:37;76991.72;;;-144.65;94.95
5146;BME280;2591;48.144;15.152;2023-01-31T04:08:07;76975.41;;;-144.65;94.22
5146;BME280;2591;48.144;15.152;2023-01-31T04:10:35;76991.72;;;-144.65;94.67
5146;BME280;2591;48.144;15.152;2023-01-31T04:13:03;76999.88;;;-144.65;95.82
5146;BME280;2591;48.144;15.152;2023-01-31T04:15:31;76997.84;;;-144.65;96.63
5146;BME280;2591;48.144;15.152;2023-01-31T04:17:59;76999.88;;;-144.65;97.20
5146;BME280;2591;48.144;15.152;2023-01-31T04:20:27;76999.88;;;-144.65;95.81
5146;BME280;2591;48.144;15.152;2023-01-31T04:22:55;76995.78;;;-144.65;94.75
5146;BME280;2591;48.144;15.152;2023-01-31T04:25:26;77006.00;;;-144.65;94.42
5146;BME280;2591;48.144;15.152;2023-01-31T04:27:58;77008.03;;;-144.65;93.82
5146;BME280;2591;48.144;15.152;2023-01-31T04:30:26;76975.41;;;-144.65;92.42
5146;BME280;2591;48.144;15.152;2023-01-31T04:32:53;76987.63;;;-144.65;92.21
5146;BME280;2591;48.144;15.152;2023-01-31T04:35:21;76999.88;;;-144.65;91.87
5146;BME280;2591;48.144;15.152;2023-01-31T04:37:49;77020.25;;;-144.65;92.55
5146;BME280;2591;48.144;15.152;2023-01-31T04:40:17;77018.22;;;-144.65;93.08
5146;BME280;2591;48.144;15.152;2023-01-31T04:42:48;77024.34;;;-144.65;93.16
5146;BME280;2591;48.144;15.152;2023-01-31T04:45:16;77008.03;;;-144.65;92.89
5146;BME280;2591;48.144;15.152;2023-01-31T04:47:45;77030.47;;;-144.65;92.76
5146;BME280;2591;48.144;15.152;2023-01-31T04:50:12;77036.59;;;-144.65;94.02
5146;BME280;2591;48.144;15.152;2023-01-31T04:52:40;77048.81;;;-144.65;94.52
5146;BME280;2591;48.144;15.152;2023-01-31T04:55:08;77069.22;;;-144.65;96.14
5146;BME280;2591;48.144;15.152;2023-01-31T04:57:36;77054.94;;;-144.65;96.76
5146;BME280;2591;48.144;15.152;2023-01-31T05:00:07;77054.94;;;-144.65;96.94
5146;BME280;2591;48.144;15.152;2023-01-31T05:02:35;77061.06;;;-144.65;98.05
5146;BME280;2591;48.144;15.152;2023-01-31T05:05:04;77061.06;;;-144.65;99.09
5146;BME280;2591;48.144;15.152;2023-01-31T05:07:32;77067.16;;;-144.65;99.73
5146;BME280;2591;48.144;15.152;2023-01-31T05:10:00;77073.28;;;-144.65;100.00
5146;BME280;2591;48.144;15.152;2023-01-31T05:12:28;77069.22;;;-144.65;100.00
5146;BME280;2591;48.144;15.152;2023-01-31T05:14:57;77081.44;;;-144.65;100.00
5146;BME280;2591;48.144;15.152;2023-01-31T05:17:26;77073.28;;;-144.65;100.00
5146;BME280;2591;48.144;15.152;2023-01-31T05:19:55;77073.28;;;-144.65;100.00
5146;BME280;2591;48.144;15.152;2023-01-31T05:22:23;77079.41;;;-144.65;99.74
5146;BME280;2591;48.144;15.152;2023-01-31T05:24:51;77079.41;;;-144.65;100.00
5146;BME280;2591;48.144;15.152;2023-01-31T05:27:20;77069.22;;;-144.65;100.00
5146;BME280;2591;48.144;15.152;2023-01-31T05:29:48;77061.06;;;-144.65;99.55
5146;BME280;2591;48.144;15.152;2023-01-31T05:32:16;77065.13;;;-144.65;100.00
5146;BME280;2591;48.144;15.152;2023-01-31T05:34:46;77065.13;;;-144.65;100.00
5146;BME280;2591;48.144;15.152;2023-01-31T05:37:14;77069.22;;;-144.65;100.00
5146;BME280;2591;48.144;15.152;2023-01-31T05:39:42;77077.38;;;-144.65;100.00
5146;BME280;2591;48.144;15.152;2023-01-31T05:42:10;77089.59;;;-144.65;100.00
5146;BME280;2591;48.144;15.152;2023-01-31T05:44:38;77097.75;;;-144.65;100.00
5146;BME280;2591;48.144;15.152;2023-01-31T05:47:05;77091.66;;;-144.65;100.00
5146;BME280;2591;48.144;15.152;2023-01-31T05:49:34;77089.59;;;-144.65;100.00
5146;BME280;2591;48.144;15.152;2023-01-31T05:52:03;77085.53;;;-144.65;98.85
5146;BME280;2591;48.144;15.152;2023-01-31T05:54:31;77069.22;;;-144.65;97.66
5146;BME280;2591;48.144;15.152;2023-01-31T05:57:00;77081.44;;;-144.65;96.66
5146;BME280;2591;48.144;15.152;2023-01-31T05:59:28;77065.13;;;-144.65;94.87
5146;BME280;2591;48.144;15.152;2023-01-31T06:01:59;77048.81;;;-144.65;92.18
5146;BME280;2591;48.144;15.152;2023-01-31T06:04:27;77067.16;;;-144.65;91.48
5146;BME280;2591;48.144;15.152;2023-01-31T06:06:55;77061.06;;;-144.65;90.71
5146;BME280;2591;48.144;15.152;2023-01-31T06:09:25;77063.09;;;-144.65;90.31
5146;BME280;2591;48.144;15.152;2023-01-31T06:11:53;77065.13;;;-144.65;89.52
5146;BME280;2591;48.144;15.152;2023-01-31T06:14:20;77069.22;;;-144.65;88.65
5146;BME280;2591;48.144;15.152;2023-01-31T06:16:48;77081.44;;;-144.65;87.98
5146;BME280;2591;48.144;15.152;2023-01-31T06:19:16;77081.44;;;-144.65;87.10
5146;BME280;2591;48.144;15.152;2023-01-31T06:21:47;77081.44;;;-144.65;86.20
5146;BME280;2591;48.144;15.152;2023-01-31T06:24:15;77085.53;;;-144.65;85.61
5146;BME280;2591;48.144;15.152;2023-01-31T06:26:45;77081.44;;;-144.65;85.52
5146;BME280;2591;48.144;15.152;2023-01-31T06:29:13;77093.69;;;-144.65;85.89
5146;BME280;2591;48.144;15.152;2023-01-31T06:31:42;77103.88;;;-144.65;86.18
5146;BME280;2591;48.144;15.152;2023-01-31T06:34:11;77120.19;;;-144.65;87.64
5146;BME280;2591;48.144;15.152;2023-01-31T06:36:38;77107.97;;;-144.65;86.66
5146;BME280;2591;48.144;15.152;2023-01-31T06:39:06;77128.34;;;-144.65;86.62
5146;BME280;2591;48.144;15.152;2023-01-31T06:41:34;77116.13;;;-144.65;86.57
5146;BME280;2591;48.144;15.152;2023-01-31T06:44:03;77122.22;;;-144.65;87.54
5146;BME280;2591;48.144;15.152;2023-01-31T06:46:32;77126.31;;;-144.65;87.32
5146;BME280;2591;48.144;15.152;2023-01-31T06:49:01;77130.41;;;-144.65;87.83
5146;BME280;2591;48.144;15.152;2023-01-31T06:51:29;77134.47;;;-144.65;88.46
5146;BME280;2591;48.144;15.152;2023-01-31T06:53:57;77144.66;;;-144.65;88.98
5146;BME280;2591;48.144;15.152;2023-01-31T06:56:25;77154.88;;;-144.65;89.68
5146;BME280;2591;48.144;15.152;2023-01-31T06:58:52;77171.19;;;-144.65;90.92
5146;BME280;2591;48.144;15.152;2023-01-31T07:01:22;77195.66;;;-144.65;91.71
5146;BME280;2591;48.144;15.152;2023-01-31T07:03:50;77191.56;;;-144.65;93.03
5146;BME280;2591;48.144;15.152;2023-01-31T07:06:18;77209.94;;;-144.65;94.68
5146;BME280;2591;48.144;15.152;2023-01-31T07:08:47;77199.72;;;-144.65;95.03
5146;BME280;2591;48.144;15.152;2023-01-31T07:11:15;77201.78;;;-144.65;95.26
5146;BME280;2591;48.144;15.152;2023-01-31T07:13:42;77207.88;;;-144.65;95.81
5146;BME280;2591;48.144;15.152;2023-01-31T07:16:13;77211.97;;;-144.65;96.47
5146;BME280;2591;48.144;15.152;2023-01-31T07:18:43;77226.25;;;-144.65;98.27
5146;BME280;2591;48.144;15.152;2023-01-31T07:21:11;77240.53;;;-144.65;99.83
5146;BME280;2591;48.144;15.152;2023-01-31T07:23:40;77254.78;;;-144.65;100.00
5146;BME280;2591;48.144;15.152;2023-01-31T07:26:08;77238.47;;;-144.65;100.00
5146;BME280;2591;48.144;15.152;2023-01-31T07:28:36;77240.53;;;-144.65;100.00
5146;BME280;2591;48.144;15.152;2023-01-31T07:31:04;77244.59;;;-144.65;100.00
5146;BME280;2591;48.144;15.152;2023-01-31T07:33:33;77258.88;;;-144.65;100.00
5146;BME280;2591;48.144;15.152;2023-01-31T07:36:03;77252.75;;;-144.65;100.00
5146;BME280;2591;48.144;15.152;2023-01-31T07:38:32;77271.13;;;-144.65;100.00
5146;BME280;2591;48.144;15.152;2023-01-31T07:41:01;77256.84;;;-144.65;100.00
5146;BME280;2591;48.144;15.152;2023-01-31T07:43:30;77271.13;;;-144.65;100.00
5146;BME280;2591;48.144;15.152;2023-01-31T07:45:59;77277.22;;;-144.65;100.00
5146;BME280;2591;48.144;15.152;2023-01-31T07:48:27;77256.84;;;-144.65;100.00
5146;BME280;2591;48.144;15.152;2023-01-31T07:50:58;77273.16;;;-144.65;100.00
5146;BME280;2591;48.144;15.152;2023-01-31T07:53:31;77273.16;;;-144.65;100.00
5146;BME280;2591;48.144;15.152;2023-01-31T07:56:07;77273.16;;;-144.65;100.00
5146;BME280;2591;48.144;15.152;2023-01-31T07:58:35;77262.97;;;-144.65;100.00
5146;BME280;2591;48.144;15.152;2023-01-31T08:01:04;77277.22;;;-144.65;100.00
5146;BME280;2591;48.144;15.152;2023-01-31T08:03:49;77285.38;;;-144.65;100.00
5146;BME280;2591;48.144;15.152;2023-01-31T08:06:18;77281.31;;;-144.65;100.00
5146;BME280;2591;48.144;15.152;2023-01-31T08:08:47;77285.38;;;-144.65;100.00
5146;BME280;2591;48.144;15.152;2023-01-31T08:11:15;77256.84;;;-144.65;100.00
5146;BME280;2591;48.144;15.152;2023-01-31T08:13:43;77256.84;;;-144.65;99.96
5146;BME280;2591;48.144;15.152;2023-01-31T08:16:11;77256.84;;;-144.65;99.26
5146;BME280;2591;48.144;15.152;2023-01-31T08:18:39;77244.59;;;-144.65;97.83
5146;BME280;2591;48.144;15.152;2023-01-31T08:21:07;77236.44;;;-144.65;95.27
5146;BME280;2591;48.144;15.152;2023-01-31T08:23:35;77236.44;;;-144.65;93.99
5146;BME280;2591;48.144;15.152;2023-01-31T08:26:07;77228.28;;;-144.65;93.78
5146;BME280;2591;48.144;15.152;2023-01-31T08:28:36;77238.47;;;-144.65;94.47
5146;BME280;2591;48.144;15.152;2023-01-31T08:31:05;77246.63;;;-144.65;94.78
5146;BME280;2591;48.144;15.152;2023-01-31T08:33:35;77248.69;;;-144.65;94.67
5146;BME280;2591;48.144;15.152;2023-01-31T08:36:08;77252.75;;;-144.65;94.73
5146;BME280;2591;48.144;15.152;2023-01-31T08:38:36;77269.06;;;-144.65;95.83
5146;BME280;2591;48.144;15.152;2023-01-31T08:41:06;77260.91;;;-144.65;95.72
5146;BME280;2591;48.144;15.152;2023-01-31T08:43:34;77269.06;;;-144.65;96.08
5146;BME280;2591;48.144;15.152;2023-01-31T08:46:21;77271.13;;;-144.65;96.61
5146;BME280;2591;48.144;15.152;2023-01-31T08:48:49;77269.06;;;-144.65;96.46
5146;BME280;2591;48.144;15.152;2023-01-31T08:51:17;77254.78;;;-144.65;96.00
5146;BME280;2591;48.144;15.152;2023-01-31T08:53:45;77275.19;;;-144.65;97.00
5146;BME280;2591;48.144;15.152;2023-01-31T08:56:15;77275.19;;;-144.65;97.52
5146;BME280;2591;48.144;15.152;2023-01-31T08:58:44;77285.38;;;-144.65;98.52
5146;BME280;2591;48.144;15.152;2023-01-31T09:01:13;77293.53;;;-144.65;98.89
5146;BME280;2591;48.144;15.152;2023-01-31T09:03:41;77285.38;;;-144.65;99.49
5146;BME280;2591;48.144;15.152;2023-01-31T09:06:13;77301.72;;;-144.65;100.00
5146;BME280;2591;48.144;15.152;2023-01-31T09:08:42;77297.63;;;-144.65;100.00
5146;BME280;2591;48.144;15.152;2023-01-31T09:11:11;77318.03;;;-144.65;100.00
5146;BME280;2591;48.144;15.152;2023-01-31T09:13:45;77324.13;;;-144.65;100.00
5146;BME280;2591;48.144;15.152;2023-01-31T09:16:13;77309.88;;;-144.65;100.00
5146;BME280;2591;48.144;15.152;2023-01-31T09:18:41;77303.75;;;-144.65;99.77
5146;BME280;2591;48.144;15.152;2023-01-31T09:21:11;77309.88;;;-144.65;99.34
5146;BME280;2591;48.144;15.152;2023-01-31T09:23:40;77303.75;;;-144.65;99.58
5146;BME280;2591;48.144;15.152;2023-01-31T09:26:09;77301.72;;;-144.65;100.00
5146;BME280;2591;48.144;15.152;2023-01-31T09:28:38;77295.59;;;-144.65;99.96
5146;BME280;2591;48.144;15.152;2023-01-31T09:31:11;77293.53;;;-144.65;99.50
5146;BME280;2591;48.144;15.152;2023-01-31T09:33:40;77285.38;;;-144.65;98.61
5146;BME280;2591;48.144;15.152;2023-01-31T09:36:10;77293.53;;;-144.65;98.25
5146;BME280;2591;48.144;15.152;2023-01-31T09:38:38;77285.38;;;-144.65;96.98
5146;BME280;2591;48.144;15.152;2023-01-31T09:41:14;77275.19;;;-144.65;96.42
5146;BME280;2591;48.144;15.152;2023-01-31T09:43:51;77273.16;;;-144.65;95.98
5146;BME280;2591;48.144;15.152;2023-01-31T09:46:24;77269.06;;;-144.65;96.12
5146;BME280;2591;48.144;15.152;2023-01-31T09:48:56;77281.31;;;-144.65;96.25
5146;BME280;2591;48.144;15.152;2023-01-31T09:51:26;77269.06;;;-144.65;94.98
5146;BME280;2591;48.144;15.152;2023-01-31T09:53:55;77258.88;;;-144.65;95.90
5146;BME280;2591;48.144;15.152;2023-01-31T09:56:29;77256.84;;;-144.65;96.78
5146;BME280;2591;48.144;15.152;2023-01-31T09:59:03;77248.69;;;-144.65;96.27
5146;BME280;2591;48.144;15.152;2023-01-31T10:01:41;77250.72;;;-144.65;96.24
5146;BME280;2591;48.144;15.152;2023-01-31T10:04:29;77224.22;;;-144.65;95.09
5146;BME280;2591;48.144;15.152;2023-01-31T10:07:04;77240.53;;;-144.65;94.42
5146;BME280;2591;48.144;15.152;2023-01-31T10:09:37;77242.56;;;-144.65;93.50
5146;BME280;2591;48.144;15.152;2023-01-31T10:12:11;77260.91;;;-144.65;92.83
5146;BME280;2591;48.144;15.152;2023-01-31T10:14:44;77273.16;;;-144.65;92.73
5146;BME280;2591;48.144;15.152;2023-01-31T10:17:21;77283.34;;;-144.65;93.50
5146;BME280;2591;48.144;15.152;2023-01-31T10:20:01;77283.34;;;-144.65;93.20
5146;BME280;2591;48.144;15.152;2023-01-31T10:22:36;77285.38;;;-144.65;93.74
5146;BME280;2591;48.144;15.152;2023-01-31T10:25:17;77277.22;;;-144.65;94.29
5146;BME280;2591;48.144;15.152;2023-01-31T10:27:49;77273.16;;;-144.65;94.51
5146;BME280;2591;48.144;15.152;2023-01-31T10:30:21;77269.06;;;-144.65;93.78
5146;BME280;2591;48.144;15.152;2023-01-31T10:32:57;77260.91;;;-144.65;93.66
5146;BME280;2591;48.144;15.152;2023-01-31T10:35:29;77254.78;;;-144.65;93.63
5146;BME280;2591;48.144;15.152;2023-01-31T10:38:04;77256.84;;;-144.65;94.68
5146;BME280;2591;48.144;15.152;2023-01-31T10:40:36;77260.91;;;-144.65;95.04
5146;BME280;2591;48.144;15.152;2023-01-31T10:43:13;77256.84;;;-144.65;95.33
5146;BME280;2591;48.144;15.152;2023-01-31T10:45:42;77246.63;;;-144.65;94.55
5146;BME280;2591;48.144;15.152;2023-01-31T10:48:15;77240.53;;;-144.65;93.32
5146;BME280;2591;48.144;15.152;2023-01-31T10:50:54;77220.13;;;-144.65;90.22
5146;BME280;2591;48.144;15.152;2023-01-31T10:53:46;77195.66;;;-144.65;87.70
5146;BME280;2591;48.144;15.152;2023-01-31T10:56:21;77175.25;;;-144.65;85.18
5146;BME280;2591;48.144;15.152;2023-01-31T10:58:53;77165.06;;;-144.65;83.09
5146;BME280;2591;48.144;15.152;2023-01-31T11:01:22;77146.72;;;-144.65;82.52
5146;BME280;2591;48.144;15.152;2023-01-31T11:03:54;77142.63;;;-144.65;82.24
5146;BME280;2591;48.144;15.152;2023-01-31T11:06:23;77144.66;;;-144.65;82.24
5146;BME280;2591;48.144;15.152;2023-01-31T11:08:54;77138.56;;;-144.65;81.16
5146;BME280;2591;48.144;15.152;2023-01-31T11:11:25;77146.72;;;-144.65;81.63
5146;BME280;2591;48.144;15.152;2023-01-31T11:13:58;77122.22;;;-144.65;81.44
5146;BME280;2591;48.144;15.152;2023-01-31T11:16:27;77103.88;;;-144.65;80.14
5146;BME280;2591;48.144;15.152;2023-01-31T11:19:01;77105.91;;;-144.65;80.33
5146;BME280;2591;48.144;15.152;2023-01-31T11:21:33;77110.00;;;-144.65;79.78
5146;BME280;2591;48.144;15.152;2023-01-31T11:24:05;77093.69;;;-144.65;79.33
5146;BME280;2591;48.144;15.152;2023-01-31T11:26:37;77093.69;;;-144.65;78.85
5146;BME280;2591;48.144;15.152;2023-01-31T11:29:08;77083.50;;;-144.65;78.65
5146;BME280;2591;48.144;15.152;2023-01-31T11:31:39;77089.59;;;-144.65;79.25
5146;BME280;2591;48.144;15.152;2023-01-31T11:34:21;77085.53;;;-144.65;78.49
5146;BME280;2591;48.144;15.152;2023-01-31T11:36:49;77085.53;;;-144.65;77.98
5146;BME280;2591;48.144;15.152;2023-01-31T11:39:29;77097.75;;;-144.65;78.43
5146;BME280;2591;48.144;15.152;2023-01-31T11:42:04;77079.41;;;-144.65;78.17
5146;BME280;2591;48.144;15.152;2023-01-31T11:44:33;77069.22;;;-144.65;77.68
5146;BME280;2591;48.144;15.152;2023-01-31T11:47:03;77077.38;;;-144.65;78.37
5146;BME280;2591;48.144;15.152;2023-01-31T11:49:34;77085.53;;;-144.65;77.90
5146;BME280;2591;48.144;15.152;2023-01-31T11:52:11;77079.41;;;-144.65;77.52
5146;BME280;2591;48.144;15.152;2023-01-31T11:54:43;77077.38;;;-144.65;78.43
5146;BME280;2591;48.144;15.152;2023-01-31T11:57:16;77091.66;;;-144.65;79.31
5146;BME280;2591;48.144;15.152;2023-01-31T11:59:49;77083.50;;;-144.65;78.98
5146;BME280;2591;48.144;15.152;2023-01-31T12:02:25;77061.06;;;-144.65;77.56
5146;BME280;2591;48.144;15.152;2023-01-31T12:04:56;77073.28;;;-144.65;78.47
5146;BME280;2591;48.144;15.152;2023-01-31T12:07:26;77052.91;;;-144.65;77.55
5146;BME280;2591;48.144;15.152;2023-01-31T12:09:55;77016.19;;;-144.65;75.66
5146;BME280;2591;48.144;15.152;2023-01-31T12:12:27;77030.47;;;-144.65;75.88
5146;BME280;2591;48.144;15.152;2023-01-31T12:14:59;77036.59;;;-144.65;76.69
5146;BME280;2591;48.144;15.152;2023-01-31T12:17:30;77030.47;;;-144.65;76.04
5146;BME280;2591;48.144;15.152;2023-01-31T12:20:09;77018.22;;;-144.65;75.19
5146;BME280;2591;48.144;15.152;2023-01-31T12:22:59;77008.03;;;-144.65;74.49
5146;BME280;2591;48.144;15.152;2023-01-31T12:25:42;77018.22;;;-144.65;75.00
5146;BME280;2591;48.144;15.152;2023-01-31T12:28:22;77014.16;;;-144.65;73.55
5146;BME280;2591;48.144;15.152;2023-01-31T12:31:05;76995.78;;;-144.65;72.77
5146;BME280;2591;48.144;15.152;2023-01-31T12:33:48;76981.53;;;-144.65;71.67
5146;BME280;2591;48.144;15.152;2023-01-31T12:36:29;76999.88;;;-144.65;71.80
5146;BME280;2591;48.144;15.152;2023-01-31T12:39:12;76991.72;;;-144.65;71.38
5146;BME280;2591;48.144;15.152;2023-01-31T12:41:48;76999.88;;;-144.65;71.77
5146;BME280;2591;48.144;15.152;2023-01-31T12:44:36;76993.75;;;-144.65;71.42
5146;BME280;2591;48.144;15.152;2023-01-31T12:47:25;77012.09;;;-144.65;71.95
5146;BME280;2591;48.144;15.152;2023-01-31T12:50:02;76995.78;;;-144.65;71.27
5146;BME280;2591;48.144;15.152;2023-01-31T12:52:41;77006.00;;;-144.65;70.46
5146;BME280;2591;48.144;15.152;2023-01-31T12:55:22;76987.63;;;-144.65;70.12
5146;BME280;2591;48.144;15.152;2023-01-31T12:57:59;76952.97;;;-144.65;68.03
5146;BME280;2591;48.144;15.152;2023-01-31T13:00:39;76944.81;;;-144.65;67.87
5146;BME280;2591;48.144;15.152;2023-01-31T13:03:29;76952.97;;;-144.65;67.54
5146;BME280;2591;48.144;15.152;2023-01-31T13:06:00;76942.78;;;-144.65;67.34
5146;BME280;2591;48.144;15.152;2023-01-31T13:08:33;76930.53;;;-144.65;66.26
5146;BME280;2591;48.144;15.152;2023-01-31T13:11:05;76942.78;;;-144.65;66.44
5146;BME280;2591;48.144;15.152;2023-01-31T13:13:40;76942.78;;;-144.65;66.93
5146;BME280;2591;48.144;15.152;2023-01-31T13:16:12;76901.97;;;-144.65;66.16
5146;BME280;2591;48.144;15.152;2023-01-31T13:18:45;76914.22;;;-144.65;66.38
5146;BME280;2591;48.144;15.152;2023-01-31T13:21:17;76922.38;;;-144.65;66.82